Date,TemperatureHighF,TemperatureAvgF,TemperatureLowF,DewpointHighF,DewpointAvgF,DewpointLowF,HumidityHigh,HumidityAvg,HumidityLow,PressureMaxIn,PressureMinIn,WindSpeedMaxMPH,WindSpeedAvgMPH,GustSpeedMaxMPH,PrecipitationSumIn
2013-1-1,52.4,43.0,37.2,41.3,36.3,32.9,87,77,60,30.24,30.15,5,1,12,0.00
2013-1-2,55.0,43.5,35.6,41.1,34.7,29.3,81,72,53,30.19,30.08,3,0,10,0.00
2013-1-3,54.1,43.0,34.2,45.3,35.6,28.4,81,75,66,30.22,30.12,3,0,9,0.00
2013-1-4,55.1,44.9,37.2,43.8,36.8,31.2,82,73,56,30.24,30.15,5,1,8,0.00
2013-1-5,53.4,48.1,42.2,48.6,44.1,37.2,91,86,79,30.25,30.07,7,0,13,0.52
2013-1-6,50.7,46.9,39.2,47.5,43.4,35.7,93,88,82,30.17,30.03,1,0,9,0.14
2013-1-7,52.1,43.7,36.7,48.0,40.5,33.4,95,88,81,30.24,30.12,5,0,9,0.01
2013-1-8,55.6,46.3,39.4,49.6,42.7,36.3,96,87,77,30.20,30.09,4,0,8,0.01
2013-1-9,54.1,47.3,41.6,48.7,42.6,37.1,90,84,75,30.11,29.99,4,0,12,0.02
2013-1-10,49.3,42.4,37.2,40.2,35.7,31.6,91,78,59,30.19,30.05,9,1,26,0.03
2013-1-11,51.3,41.2,32.2,40.8,34.4,27.9,90,77,60,30.24,30.12,7,0,15,0.01
2013-1-12,47.9,41.3,35.7,38.6,33.9,28.6,83,75,63,30.22,30.12,6,1,12,0.00
2013-1-13,48.4,38.1,31.1,36.7,28.1,23.8,78,68,48,30.23,30.13,6,1,10,0.00
2013-1-14,47.7,38.7,30.8,33.8,24.8,17.3,73,58,37,30.39,30.18,6,1,13,0.00
2013-1-15,49.7,39.2,31.9,35.7,27.6,23.5,74,64,41,30.45,30.37,3,0,9,0.00
2013-1-16,54.3,45.1,34.1,37.5,33.2,27.0,76,64,47,30.39,30.20,6,1,8,0.00
2013-1-17,62.5,48.3,38.2,41.7,35.7,30.3,74,63,41,30.21,30.10,5,1,10,0.00
2013-1-18,62.7,49.8,42.2,40.8,35.7,31.7,69,59,36,30.18,30.10,3,1,10,0.00
2013-1-19,63.6,50.3,42.5,40.8,35.7,31.6,70,58,35,30.18,30.11,3,0,9,0.00
2013-1-20,67.0,51.3,40.0,41.0,34.6,28.7,65,54,32,30.17,30.06,3,1,10,0.00
2013-1-21,66.1,50.6,40.7,39.3,33.6,28.8,65,54,27,30.13,30.03,5,1,9,0.00
2013-1-22,64.1,51.4,40.9,41.6,34.2,28.5,63,53,31,30.08,29.99,3,0,9,0.00
2013-1-23,57.6,52.6,48.8,48.1,41.5,35.0,82,66,56,30.05,29.94,3,0,9,0.04
2013-1-24,56.3,53.9,51.5,52.4,49.4,46.5,87,85,82,30.16,30.02,0,0,5,0.19
2013-1-25,64.7,57.2,51.9,57.7,52.5,47.6,94,84,76,30.16,30.01,6,1,12,0.00
2013-1-26,57.7,51.5,42.2,49.8,43.6,35.9,89,75,55,30.09,29.98,8,1,22,0.01
2013-1-27,55.5,45.5,37.1,43.0,37.1,32.3,90,73,51,30.16,30.07,7,1,14,0.01
2013-1-28,57.1,47.2,37.4,41.9,38.2,32.2,85,72,52,30.29,30.15,6,0,14,0.00
2013-1-29,55.8,46.5,38.9,45.3,39.3,33.8,87,76,64,30.35,30.25,6,0,12,0.01
2013-1-30,57.9,47.4,39.2,45.4,40.2,34.6,91,76,60,30.34,30.24,5,0,9,0.01
2013-1-31,61.0,49.1,39.5,46.8,40.7,34.0,85,74,55,30.26,30.15,5,1,8,0.01